Time;durP1;ratioP1;P1;durP2;ratioP2;P2;SDS_P1;SDS_P2;PMS_P1;PMS_P2;Temp;Humidity;BMP_temperature;BMP_pressure;BME280_temperature;BME280_humidity;BME280_pressure;Samples;Min_cycle;Max_cycle;Signal;HPM_P1;HPM_P2
2023/05/27 00:01:16;;;;;;;4.40;3.47;;;;;;;18.45;62.73;97187.03;10483209;28;20488;-32
2023/05/27 00:06:17;;;;;;;3.97;3.35;;;;;;;18.60;64.37;97187.16;10491315;28;20159;-30
2023/05/27 00:11:17;;;;;;;3.37;2.33;;;;;;;18.56;62.25;97185.41;10490623;28;20139;-30
2023/05/27 00:16:19;;;;;;;2.97;2.43;;;;;;;18.42;62.64;97176.88;10482770;28;20060;-31
2023/05/27 00:21:20;;;;;;;2.28;2.08;;;;;;;18.35;61.53;97181.03;10491161;28;20836;-31
2023/05/27 00:26:21;;;;;;;2.58;2.38;;;;;;;18.31;60.98;97178.47;10490212;28;20060;-31
2023/05/27 00:31:25;;;;;;;2.28;2.08;;;;;;;18.27;61.06;97172.50;10472111;28;20033;-31
2023/05/27 00:36:26;;;;;;;2.38;2.17;;;;;;;18.25;60.66;97173.34;10482254;28;20565;-30
2023/05/27 00:41:26;;;;;;;4.10;2.73;;;;;;;18.23;60.80;97173.31;10482009;28;20039;-31
2023/05/27 00:46:27;;;;;;;2.67;2.47;;;;;;;18.22;60.62;97163.16;10472433;28;20032;-31
2023/05/27 00:51:28;;;;;;;2.40;2.20;;;;;;;18.21;60.61;97156.38;10472589;28;20470;-31
2023/05/27 00:56:28;;;;;;;2.17;1.98;;;;;;;18.20;60.75;97160.63;10489575;28;20024;-32
2023/05/27 01:01:29;;;;;;;3.13;2.75;;;;;;;18.36;62.35;97149.81;10482299;28;20035;-31
2023/05/27 01:06:43;;;;;;;4.07;3.15;;;;;;;18.55;62.98;97155.81;10474400;28;20047;-30
2023/05/27 01:11:59;;;;;;;3.13;2.67;;;;;;;18.58;61.81;97153.31;10485036;28;20071;-32
2023/05/27 01:17:03;;;;;;;3.03;2.50;;;;;;;18.43;62.71;97143.06;10470862;28;20029;-32
2023/05/27 01:22:05;;;;;;;2.30;2.10;;;;;;;18.31;61.61;97133.69;10486839;28;20036;-31
2023/05/27 01:27:05;;;;;;;3.05;2.35;;;;;;;18.18;61.16;97125.97;10489970;28;20128;-31
2023/05/27 01:32:12;;;;;;;2.50;2.28;;;;;;;18.24;60.95;97131.91;10467401;28;20638;-31
2023/05/27 01:37:18;;;;;;;2.10;1.90;;;;;;;18.23;60.63;97134.44;10477414;28;20029;-31
2023/05/27 01:42:20;;;;;;;2.53;2.08;;;;;;;18.22;60.66;97130.19;10497194;28;20420;-31
2023/05/27 01:47:20;;;;;;;2.95;2.00;;;;;;;18.19;60.61;97122.59;10469871;28;20501;-31
2023/05/27 01:52:21;;;;;;;2.80;2.10;;;;;;;18.19;60.62;97120.91;10496325;28;20049;-31
2023/05/27 01:57:21;;;;;;;2.17;1.97;;;;;;;18.19;60.49;97128.53;10488379;28;20869;-31
2023/05/27 02:02:23;;;;;;;2.35;2.15;;;;;;;18.24;61.37;97121.78;10477301;28;20547;-31
2023/05/27 02:07:26;;;;;;;3.28;2.42;;;;;;;18.47;62.53;97119.44;10470957;28;20072;-31
2023/05/27 02:12:27;;;;;;;3.10;2.70;;;;;;;18.59;62.48;97119.53;10459527;28;20041;-31
2023/05/27 02:17:28;;;;;;;2.90;2.60;;;;;;;18.49;62.42;97117.78;10442741;28;20028;-31
2023/05/27 02:22:28;;;;;;;2.95;2.33;;;;;;;18.37;61.62;97112.59;10465945;28;20025;-31
2023/05/27 02:27:29;;;;;;;3.28;2.33;;;;;;;18.30;61.04;97100.72;10468142;28;20027;-30
2023/05/27 02:32:31;;;;;;;2.10;1.90;;;;;;;18.28;61.09;97102.38;10477822;28;20043;-30
2023/05/27 02:37:31;;;;;;;2.20;2.00;;;;;;;18.25;60.31;97102.38;10464472;28;20557;-30
2023/05/27 02:42:32;;;;;;;6.22;2.83;;;;;;;18.28;62.77;97102.38;10476006;28;20097;-31
2023/05/27 02:47:33;;;;;;;17.23;6.50;;;;;;;18.28;62.00;97102.38;10493091;28;20074;-30
2023/05/27 02:52:36;;;;;;;6.70;2.03;;;;;;;18.28;61.36;97099.84;10491177;28;20028;-30
2023/05/27 02:57:36;;;;;;;6.63;5.75;;;;;;;18.19;61.69;97097.25;10464177;28;20035;-30
2023/05/27 03:02:37;;;;;;;10.87;5.47;;;;;;;18.15;60.79;97095.53;10467482;28;20471;-35
2023/05/27 03:07:37;;;;;;;13.23;6.80;;;;;;;18.36;62.16;97095.69;10454863;28;20070;-34
2023/05/27 03:12:37;;;;;;;10.73;5.33;;;;;;;18.49;63.51;97089.88;10468135;28;20123;-34
2023/05/27 03:17:38;;;;;;;7.43;4.50;;;;;;;18.47;61.51;97083.94;10492650;28;20059;-34
2023/05/27 03:22:38;;;;;;;10.35;3.90;;;;;;;18.38;61.62;97094.88;10461830;28;20037;-33
2023/05/27 03:27:40;;;;;;;6.05;3.85;;;;;;;18.32;61.33;97099.91;10471617;28;20492;-34
2023/05/27 03:32:43;;;;;;;5.85;3.65;;;;;;;18.21;60.90;97080.34;10470827;28;20028;-34
2023/05/27 03:37:45;;;;;;;5.07;3.20;;;;;;;18.26;60.78;97099.81;10474212;28;20024;-33
2023/05/27 03:42:46;;;;;;;8.02;4.32;;;;;;;18.24;61.04;97096.44;10458684;28;20558;-34
2023/05/27 03:47:49;;;;;;;4.68;3.60;;;;;;;18.24;60.76;97100.69;10471336;28;20028;-33
2023/05/27 03:52:51;;;;;;;4.72;3.47;;;;;;;18.23;60.78;97093.88;10468319;28;20039;-34
2023/05/27 03:57:51;;;;;;;5.80;3.07;;;;;;;18.21;61.09;97091.34;10467648;28;20519;-34
2023/05/27 04:02:52;;;;;;;6.10;2.93;;;;;;;18.22;60.95;97097.25;10468846;28;20291;-33
2023/05/27 04:07:52;;;;;;;8.50;4.07;;;;;;;18.36;63.60;97101.63;10473239;28;20119;-33
2023/05/27 04:12:52;;;;;;;5.20;4.40;;;;;;;18.53;66.47;97096.66;10473762;28;20403;-33
2023/05/27 04:17:53;;;;;;;4.77;3.47;;;;;;;18.57;62.33;97091.59;10457953;28;20032;-34
2023/05/27 04:22:53;;;;;;;3.23;2.60;;;;;;;18.47;63.26;97101.69;10464491;28;20033;-33
2023/05/27 04:27:55;;;;;;;3.65;3.30;;;;;;;18.36;62.82;97100.78;10465543;28;20279;-34
2023/05/27 04:32:56;;;;;;;3.95;3.15;;;;;;;18.32;61.92;97094.00;10470475;28;20043;-33
2023/05/27 04:37:58;;;;;;;3.50;3.20;;;;;;;18.30;61.64;97100.72;10447438;28;20028;-33
2023/05/27 04:43:03;;;;;;;4.85;2.92;;;;;;;18.28;61.36;97097.31;10456824;28;20024;-34
2023/05/27 04:48:04;;;;;;;3.50;3.10;;;;;;;18.25;61.50;97099.84;10455212;28;20512;-34
2023/05/27 04:53:04;;;;;;;2.95;2.65;;;;;;;18.23;61.12;97094.75;10470096;28;20291;-34
2023/05/27 04:58:05;;;;;;;4.15;2.55;;;;;;;18.23;61.10;97094.75;10472778;28;20021;-33
2023/05/27 05:03:06;;;;;;;3.95;2.83;;;;;;;18.20;60.97;97093.88;10471042;28;20059;-33
2023/05/27 05:08:08;;;;;;;2.70;2.50;;;;;;;18.24;62.22;97095.59;10463527;28;20025;-34
2023/05/27 05:13:08;;;;;;;3.50;3.20;;;;;;;18.46;66.18;97092.38;10472172;28;20034;-34
2023/05/27 05:18:11;;;;;;;4.72;3.40;;;;;;;18.57;64.50;97106.00;10463959;28;20032;-33
2023/05/27 05:23:11;;;;;;;3.25;2.70;;;;;;;18.50;63.36;97089.03;10481799;28;20028;-32
2023/05/27 05:28:12;;;;;;;3.20;2.70;;;;;;;18.38;62.94;97094.03;10464070;28;20043;-33
2023/05/27 05:33:13;;;;;;;4.05;3.00;;;;;;;18.33;62.61;97095.69;10471434;28;20036;-33
2023/05/27 05:38:14;;;;;;;2.58;2.38;;;;;;;18.30;61.79;97095.66;10447594;28;20033;-34
2023/05/27 05:43:15;;;;;;;3.63;2.63;;;;;;;18.25;61.48;97093.06;10456080;28;20059;-34
2023/05/27 05:48:15;;;;;;;3.13;2.25;;;;;;;18.26;61.39;97099.00;10470990;28;20028;-33
2023/05/27 05:53:17;;;;;;;3.53;2.75;;;;;;;18.24;61.12;97095.59;10454547;28;20036;-34
2023/05/27 05:58:19;;;;;;;2.45;2.05;;;;;;;18.20;61.42;97091.34;10447482;28;20028;-34
2023/05/27 06:03:20;;;;;;;3.30;2.60;;;;;;;18.22;61.20;97104.84;10474499;28;20025;-33
2023/05/27 06:08:24;;;;;;;3.05;2.47;;;;;;;18.23;61.13;97104.03;10462410;28;20041;-35
2023/05/27 06:13:35;;;;;;;2.92;2.70;;;;;;;18.42;63.07;97098.28;10478419;28;20135;-34
2023/05/27 06:18:39;;;;;;;2.60;2.40;;;;;;;18.55;63.80;97098.38;10474731;28;20025;-34
2023/05/27 06:23:39;;;;;;;2.80;2.50;;;;;;;18.55;62.43;97094.97;10478907;28;20025;-34
2023/05/27 06:28:47;;;;;;;2.22;2.03;;;;;;;18.42;62.74;97095.75;10474163;28;20348;-33
2023/05/27 06:33:50;;;;;;;2.83;2.50;;;;;;;18.36;62.48;97100.78;10469310;28;20115;-34
2023/05/27 06:38:51;;;;;;;3.33;2.53;;;;;;;18.32;62.06;97101.59;10455502;28;20025;-33
2023/05/27 06:43:52;;;;;;;2.50;2.30;;;;;;;18.28;61.70;97105.78;10457961;28;20024;-34
2023/05/27 06:49:21;;;;;;;2.72;2.45;;;;;;;18.27;61.34;97103.22;10466529;28;20028;-33
2023/05/27 06:54:22;;;;;;;2.38;2.17;;;;;;;18.27;61.38;97095.63;10460485;28;20119;-33
2023/05/27 06:59:23;;;;;;;3.30;2.42;;;;;;;18.26;61.12;97104.06;10468168;28;20399;-34
2023/05/27 07:04:25;;;;;;;2.40;2.20;;;;;;;18.24;61.15;97098.13;10451541;28;20037;-32
2023/05/27 07:09:31;;;;;;;2.63;2.10;;;;;;;18.23;61.36;97099.81;10454449;28;20059;-33
2023/05/27 07:14:31;;;;;;;2.30;2.10;;;;;;;18.37;62.56;97094.88;10458906;28;20066;-33
2023/05/27 07:19:32;;;;;;;2.40;2.20;;;;;;;18.54;65.09;97095.81;10463962;28;20497;-33
2023/05/27 07:24:36;;;;;;;1.98;1.77;;;;;;;18.58;62.07;97088.22;10453057;28;20033;-33
2023/05/27 07:29:38;;;;;;;2.40;2.20;;;;;;;18.46;62.94;97088.16;10465809;28;20504;-34
2023/05/27 07:34:57;;;;;;;2.45;2.08;;;;;;;18.34;62.60;97082.19;10472047;28;20501;-34
2023/05/27 07:39:57;;;;;;;2.47;2.28;;;;;;;18.32;62.06;97084.69;10470900;28;20032;-33
2023/05/27 07:45:00;;;;;;;3.10;2.38;;;;;;;18.31;61.62;97079.59;10466715;28;20032;-32
2023/05/27 07:50:00;;;;;;;2.28;2.08;;;;;;;18.25;61.66;97071.94;10444270;28;20428;-33
2023/05/27 07:55:10;;;;;;;3.38;2.17;;;;;;;18.27;61.37;97077.88;10482894;28;20048;-34
2023/05/27 08:00:11;;;;;;;2.75;2.42;;;;;;;18.25;61.31;97071.94;10466230;28;20134;-35
2023/05/27 08:05:26;;;;;;;2.28;2.00;;;;;;;18.25;61.18;97066.88;10468159;28;20417;-34
2023/05/27 08:10:44;;;;;;;2.13;1.90;;;;;;;18.23;61.12;97063.47;10470295;28;20161;-33
2023/05/27 08:16:02;;;;;;;2.42;2.22;;;;;;;18.33;62.93;97057.69;10459889;28;20041;-34
2023/05/27 08:21:17;;;;;;;2.75;2.35;;;;;;;18.52;63.48;97046.78;10466461;28;20025;-33
2023/05/27 08:26:40;;;;;;;2.22;2.03;;;;;;;18.58;61.87;97051.91;10472122;28;20048;-34
2023/05/27 08:31:55;;;;;;;2.65;2.25;;;;;;;18.47;62.59;97049.31;10469027;28;20051;-33
2023/05/27 08:36:55;;;;;;;2.33;2.13;;;;;;;18.38;62.39;97038.25;10472561;28;20055;-34
2023/05/27 08:41:58;;;;;;;2.58;2.25;;;;;;;18.33;62.02;97037.41;10465064;28;20036;-33
2023/05/27 08:46:59;;;;;;;2.40;2.20;;;;;;;18.32;61.92;97030.63;10459370;28;20024;-33
2023/05/27 08:52:01;;;;;;;2.63;2.42;;;;;;;18.30;61.56;97037.34;10472039;28;20400;-33
2023/05/27 08:57:07;;;;;;;3.22;1.70;;;;;;;18.28;61.23;97026.34;10472836;28;20028;-34
2023/05/27 09:02:12;;;;;;;2.17;2.00;;;;;;;18.27;61.30;97024.66;10476255;28;20020;-33
2023/05/27 09:07:12;;;;;;;2.15;1.95;;;;;;;18.27;61.14;97032.25;10456930;28;20021;-34
2023/05/27 09:12:22;;;;;;;1.60;1.47;;;;;;;18.27;61.25;97024.66;10480548;28;20446;-33
2023/05/27 09:17:23;;;;;;;2.42;1.98;;;;;;;18.29;63.71;97017.88;10481640;28;20293;-33
2023/05/27 09:22:31;;;;;;;2.40;2.20;;;;;;;18.49;63.67;97016.34;10473168;28;20419;-33
2023/05/27 09:27:32;;;;;;;2.25;2.05;;;;;;;18.59;63.03;97003.69;10481776;28;20060;-33
2023/05/27 09:32:33;;;;;;;2.30;2.10;;;;;;;18.53;62.58;97003.69;10481513;28;20032;-33
2023/05/27 09:37:34;;;;;;;2.88;2.40;;;;;;;18.43;62.67;97008.72;10491997;28;20036;-34
2023/05/27 09:42:48;;;;;;;2.30;1.90;;;;;;;18.33;62.32;96991.78;10488951;28;20045;-34
2023/05/27 09:47:53;;;;;;;2.25;2.05;;;;;;;18.33;61.91;97000.19;10466770;28;20037;-33
2023/05/27 09:52:55;;;;;;;2.30;2.10;;;;;;;18.31;61.47;96988.34;10496743;28;20040;-34
2023/05/27 09:57:55;;;;;;;2.03;1.83;;;;;;;18.29;61.38;96995.97;10485497;28;20049;-33
2023/05/27 10:02:57;;;;;;;1.98;1.60;;;;;;;18.28;61.50;96989.19;10470313;28;20471;-33
2023/05/27 10:07:58;;;;;;;2.20;2.00;;;;;;;18.27;61.30;96979.88;10496158;28;20029;-34
2023/05/27 10:12:59;;;;;;;2.72;2.00;;;;;;;18.27;61.43;96973.97;10496568;28;20037;-33
2023/05/27 10:18:09;;;;;;;1.88;1.70;;;;;;;18.23;61.30;96968.03;10485022;28;20032;-34
2023/05/27 10:23:21;;;;;;;2.42;2.15;;;;;;;18.46;63.12;96973.22;10472820;28;20492;-33
2023/05/27 10:28:27;;;;;;;2.30;2.10;;;;;;;18.51;64.79;96948.75;10487977;28;20067;-34
2023/05/27 10:33:34;;;;;;;1.97;1.67;;;;;;;18.57;62.77;96958.91;10487629;28;20083;-33
2023/05/27 10:38:38;;;;;;;;;;;;;;;18.44;62.89;96957.16;10462560;28;20528;-34
2023/05/27 10:43:38;;;;;;;1.70;1.60;;;;;;;18.36;62.16;96949.53;10496466;28;19919;-34
2023/05/27 10:48:41;;;;;;;1.98;1.85;;;;;;;18.34;61.99;96952.91;10492240;28;20047;-33
2023/05/27 10:53:45;;;;;;;2.53;2.05;;;;;;;18.30;61.69;96948.66;10480281;28;20378;-33
2023/05/27 10:58:46;;;;;;;2.00;1.80;;;;;;;18.29;61.46;96946.94;10494898;28;20043;-33
2023/05/27 11:03:49;;;;;;;1.83;1.60;;;;;;;18.27;61.51;96943.53;10487462;28;20037;-33
2023/05/27 11:08:50;;;;;;;2.25;1.55;;;;;;;18.26;61.42;96931.72;10477209;28;20029;-33
2023/05/27 11:13:50;;;;;;;1.42;1.33;;;;;;;18.26;61.40;96941.84;10477669;28;20041;-33
2023/05/27 11:18:51;;;;;;;2.15;1.95;;;;;;;18.25;61.41;96932.56;10493674;28;20032;-33
2023/05/27 11:23:51;;;;;;;2.05;1.88;;;;;;;18.36;63.35;96921.66;10485463;28;20523;-33
2023/05/27 11:28:58;;;;;;;2.30;2.10;;;;;;;18.54;63.18;96923.38;10477049;28;20040;-33
2023/05/27 11:33:58;;;;;;;1.67;1.58;;;;;;;18.60;61.85;96914.09;10493194;28;20060;-34
2023/05/27 11:39:02;;;;;;;2.23;1.80;;;;;;;18.47;62.72;96904.78;10487594;28;20028;-33
2023/05/27 11:44:06;;;;;;;1.60;1.40;;;;;;;18.39;62.47;96890.38;10481004;28;20036;-33
2023/05/27 11:49:10;;;;;;;2.22;1.98;;;;;;;18.35;62.10;96891.22;10483090;28;20020;-33
2023/05/27 11:54:22;;;;;;;2.20;2.00;;;;;;;18.34;61.81;96892.06;10483761;28;20039;-33
2023/05/27 11:59:23;;;;;;;2.10;1.90;;;;;;;18.31;61.50;96886.97;10460809;28;20041;-33
2023/05/27 12:04:24;;;;;;;1.73;1.63;;;;;;;18.29;61.66;96876.84;10483795;28;20033;-33
2023/05/27 12:09:24;;;;;;;1.90;1.80;;;;;;;18.30;61.62;96868.41;10488252;28;20114;-33
2023/05/27 12:14:24;;;;;;;1.60;1.50;;;;;;;18.30;61.62;96862.47;10483674;28;20290;-33
2023/05/27 12:19:25;;;;;;;2.10;1.90;;;;;;;18.28;61.64;96854.00;10483278;28;20274;-33
2023/05/27 12:24:25;;;;;;;2.50;2.30;;;;;;;18.35;64.77;96848.13;10480984;28;20303;-33
2023/05/27 12:29:27;;;;;;;1.63;1.53;;;;;;;18.54;63.34;96848.19;10491677;28;20040;-32
2023/05/27 12:34:29;;;;;;;1.98;1.80;;;;;;;18.62;62.26;96840.56;10475844;28;20063;-33
2023/05/27 12:39:29;;;;;;;1.70;1.60;;;;;;;18.50;62.91;96835.50;10490024;28;20036;-34
2023/05/27 12:44:30;;;;;;;1.90;1.60;;;;;;;18.43;62.84;96841.41;10474640;28;20036;-34
2023/05/27 12:49:30;;;;;;;1.60;1.50;;;;;;;18.39;62.74;96834.63;10486301;28;20036;-33
2023/05/27 12:54:30;;;;;;;1.80;1.70;;;;;;;18.36;62.49;96824.47;10474848;28;20039;-33
2023/05/27 12:59:32;;;;;;;2.50;2.30;;;;;;;18.34;62.16;96819.41;10490303;28;20028;-34
2023/05/27 13:04:33;;;;;;;1.63;1.52;;;;;;;18.33;61.73;96819.41;10482645;28;20056;-33
2023/05/27 13:09:33;;;;;;;2.15;1.88;;;;;;;18.31;61.77;96813.47;10489920;28;20033;-33
2023/05/27 13:14:34;;;;;;;1.60;1.50;;;;;;;18.31;61.66;96813.47;10479896;28;20040;-33
2023/05/27 13:19:34;;;;;;;1.80;1.70;;;;;;;18.28;62.09;96808.38;10498045;28;20480;-33
2023/05/27 13:24:35;;;;;;;2.08;1.73;;;;;;;18.32;63.84;96810.13;10489914;28;20043;-34
2023/05/27 13:29:35;;;;;;;1.60;1.50;;;;;;;18.52;63.04;96808.47;10481276;28;20040;-34
2023/05/27 13:34:36;;;;;;;1.70;1.60;;;;;;;18.64;63.07;96808.47;10498948;28;20051;-33
2023/05/27 13:39:42;;;;;;;1.70;1.53;;;;;;;18.56;62.54;96811.00;10497096;28;20032;-33
2023/05/27 13:44:43;;;;;;;1.50;1.40;;;;;;;18.44;62.67;96805.06;10477294;28;20029;-33
2023/05/27 13:49:43;;;;;;;1.55;1.45;;;;;;;18.38;62.44;96794.91;10497592;28;20044;-34
2023/05/27 13:54:43;;;;;;;1.30;1.20;;;;;;;18.36;62.29;96791.53;10480738;28;20040;-33
2023/05/27 13:59:44;;;;;;;1.53;1.43;;;;;;;18.35;61.92;96792.38;10472761;28;20284;-33
2023/05/27 14:04:44;;;;;;;3.23;2.00;;;;;;;18.31;61.69;96791.53;10492185;28;20282;-33
2023/05/27 14:09:45;;;;;;;1.77;1.50;;;;;;;18.31;61.70;96780.53;10491070;28;20661;-34
2023/05/27 14:14:46;;;;;;;1.63;1.40;;;;;;;18.30;61.42;96773.78;10489913;28;20687;-34
2023/05/27 14:19:47;;;;;;;1.40;1.30;;;;;;;18.25;61.59;96756.00;10496696;28;20036;-33
2023/05/27 14:24:48;;;;;;;1.38;1.27;;;;;;;18.29;61.55;96769.50;10478824;28;20037;-33
2023/05/27 14:29:48;;;;;;;2.25;2.05;;;;;;;18.46;63.07;96755.19;10479634;28;20032;-33
2023/05/27 14:34:48;;;;;;;1.60;1.50;;;;;;;18.63;62.78;96750.97;10478115;28;20509;-35
2023/05/27 14:39:51;;;;;;;1.93;1.30;;;;;;;18.61;62.17;96737.47;10476976;28;20085;-33
2023/05/27 14:44:52;;;;;;;1.50;1.40;;;;;;;18.50;62.76;96744.25;10495346;28;20123;-34
2023/05/27 14:49:52;;;;;;;1.70;1.60;;;;;;;18.43;62.72;96733.22;10486903;28;20051;-34
2023/05/27 14:54:53;;;;;;;1.80;1.70;;;;;;;18.39;62.54;96725.63;10474459;28;20036;-34
2023/05/27 14:59:53;;;;;;;2.58;1.67;;;;;;;18.37;62.27;96732.38;10471875;28;20035;-34
2023/05/27 15:04:53;;;;;;;1.60;1.50;;;;;;;18.35;62.10;96729.00;10474015;28;20028;-33
2023/05/27 15:09:54;;;;;;;1.53;1.43;;;;;;;18.33;61.96;96733.25;10485555;28;20432;-34
2023/05/27 15:14:57;;;;;;;1.73;1.63;;;;;;;18.32;61.85;96729.03;10471339;28;20037;-33
2023/05/27 15:19:57;;;;;;;1.70;1.50;;;;;;;18.33;61.76;96720.56;10493997;28;20033;-33
2023/05/27 15:24:58;;;;;;;1.47;1.37;;;;;;;18.32;61.59;96718.88;10476065;28;20040;-34
2023/05/27 15:29:58;;;;;;;1.50;1.40;;;;;;;18.43;63.84;96717.19;10468261;28;20028;-33
2023/05/27 15:35:00;;;;;;;1.60;1.50;;;;;;;18.60;63.42;96715.50;10478439;28;20283;-34
2023/05/27 15:40:01;;;;;;;1.40;1.30;;;;;;;18.65;62.11;96718.84;10482562;28;20032;-34
2023/05/27 15:45:02;;;;;;;1.55;1.45;;;;;;;18.54;63.16;96715.50;10479318;28;20028;-33
2023/05/27 15:50:03;;;;;;;1.70;1.50;;;;;;;18.45;63.07;96701.16;10489227;28;20086;-34
2023/05/27 15:55:04;;;;;;;1.73;1.63;;;;;;;18.41;63.28;96703.69;10472575;28;20036;-34
2023/05/27 16:00:05;;;;;;;2.17;1.98;;;;;;;18.38;62.37;96703.66;10478280;28;20024;-33
2023/05/27 16:05:14;;;;;;;1.58;1.48;;;;;;;18.35;62.19;96707.03;10464105;28;20039;-33
2023/05/27 16:10:18;;;;;;;2.08;1.58;;;;;;;18.34;61.95;96701.97;10463874;28;20021;-33
2023/05/27 16:15:18;;;;;;;1.60;1.50;;;;;;;18.30;61.88;96693.53;10475456;28;20045;-34
2023/05/27 16:20:18;;;;;;;1.50;1.30;;;;;;;18.34;61.95;96696.91;10481071;28;20479;-34
2023/05/27 16:25:19;;;;;;;1.70;1.60;;;;;;;18.33;62.05;96690.97;10482742;28;20097;-33
2023/05/27 16:30:19;;;;;;;2.00;1.70;;;;;;;18.37;64.86;96695.22;10460391;28;20115;-34
2023/05/27 16:35:22;;;;;;;1.75;1.40;;;;;;;18.56;63.42;96703.66;10475106;28;20313;-34
2023/05/27 16:40:23;;;;;;;1.70;1.60;;;;;;;18.66;62.14;96698.56;10485514;28;20040;-33
2023/05/27 16:45:23;;;;;;;1.65;1.23;;;;;;;18.56;62.95;96706.19;10468762;28;20033;-33
2023/05/27 16:50:24;;;;;;;1.50;1.40;;;;;;;18.46;62.80;96699.44;10463397;28;20487;-34
2023/05/27 16:55:24;;;;;;;1.63;1.52;;;;;;;18.40;62.62;96692.69;10470898;28;20290;-33
2023/05/27 17:00:25;;;;;;;1.50;1.40;;;;;;;18.37;62.30;96691.84;10482193;28;20033;-33
2023/05/27 17:05:26;;;;;;;1.38;1.27;;;;;;;18.36;62.17;96700.28;10487848;28;20056;-33
2023/05/27 17:10:26;;;;;;;1.53;1.43;;;;;;;18.35;61.71;96703.66;10490163;28;20119;-33
2023/05/27 17:15:27;;;;;;;1.60;1.50;;;;;;;18.33;61.88;96706.19;10486085;28;21096;-33
2023/05/27 17:20:27;;;;;;;1.27;1.17;;;;;;;18.34;61.75;96712.13;10488489;28;20032;-33
2023/05/27 17:25:27;;;;;;;1.75;1.65;;;;;;;18.31;61.74;96704.50;10478937;28;20510;-33
2023/05/27 17:30:28;;;;;;;1.57;1.47;;;;;;;18.22;61.68;96691.78;10482038;28;20036;-33
2023/05/27 17:35:28;;;;;;;1.30;1.20;;;;;;;18.51;63.32;96706.19;10480532;28;20033;-35
2023/05/27 17:40:29;;;;;;;1.50;1.40;;;;;;;18.65;63.45;96704.50;10467093;28;20032;-34
2023/05/27 17:45:29;;;;;;;1.20;1.10;;;;;;;18.61;62.71;96707.03;10481134;28;20091;-33
2023/05/27 17:50:29;;;;;;;1.60;1.50;;;;;;;18.51;62.89;96715.50;10476332;28;20035;-32
2023/05/27 17:55:30;;;;;;;1.73;1.63;;;;;;;18.42;62.50;96715.50;10478148;28;20036;-33
2023/05/27 18:00:30;;;;;;;1.10;0.90;;;;;;;18.38;62.20;96711.25;10478895;28;20070;-33
2023/05/27 18:05:34;;;;;;;1.30;1.10;;;;;;;18.35;61.95;96719.69;10491214;28;20663;-33
2023/05/27 18:10:34;;;;;;;1.33;1.23;;;;;;;18.34;61.98;96723.09;10471296;28;20040;-33
2023/05/27 18:15:34;;;;;;;1.63;1.53;;;;;;;18.36;61.85;96733.22;10485618;28;20046;-33
2023/05/27 18:20:35;;;;;;;1.30;1.20;;;;;;;18.32;61.72;96734.91;10480020;28;20032;-33
2023/05/27 18:25:36;;;;;;;1.27;1.17;;;;;;;18.31;61.60;96732.38;10495632;28;20044;-34
2023/05/27 18:30:36;;;;;;;1.40;1.30;;;;;;;18.31;61.59;96740.84;10492036;28;20529;-33
2023/05/27 18:35:36;;;;;;;2.13;1.93;;;;;;;18.45;63.48;96743.38;10482132;28;20049;-33
2023/05/27 18:40:39;;;;;;;1.70;1.60;;;;;;;18.62;62.52;96746.75;10478616;28;20060;-33
2023/05/27 18:45:49;;;;;;;1.02;1.00;;;;;;;18.65;62.00;96749.28;10476610;28;20029;-34
2023/05/27 18:50:50;;;;;;;1.25;1.10;;;;;;;18.52;62.61;96758.59;10487323;28;20032;-34
2023/05/27 18:55:51;;;;;;;1.25;1.15;;;;;;;18.45;62.47;96766.19;10486617;28;20532;-34
2023/05/27 19:00:51;;;;;;;1.30;1.20;;;;;;;18.39;62.14;96772.09;10471523;28;20098;-33
2023/05/27 19:05:52;;;;;;;1.27;1.17;;;;;;;18.37;61.95;96767.88;10478490;28;20366;-33
2023/05/27 19:10:52;;;;;;;1.75;1.65;;;;;;;18.36;61.81;96773.78;10492077;28;20028;-33
2023/05/27 19:15:52;;;;;;;1.63;1.50;;;;;;;18.34;61.67;96773.78;10470674;28;20091;-32
2023/05/27 19:20:53;;;;;;;1.40;1.30;;;;;;;18.33;61.60;96777.16;10493947;28;20102;-33
2023/05/27 19:25:53;;;;;;;1.57;1.37;;;;;;;18.32;61.60;96784.78;10493503;28;20399;-33
2023/05/27 19:30:54;;;;;;;1.30;1.20;;;;;;;18.30;61.55;96797.44;10482022;28;20488;-33
2023/05/27 19:35:56;;;;;;;1.27;1.17;;;;;;;18.36;63.71;96796.59;10477077;28;20401;-35
2023/05/27 19:40:59;;;;;;;1.30;1.20;;;;;;;18.55;61.88;96794.09;10466381;28;20649;-34
2023/05/27 19:46:02;;;;;;;1.40;1.30;;;;;;;18.68;62.35;96794.94;10458913;28;20041;-33
2023/05/27 19:51:02;;;;;;;1.35;1.25;;;;;;;18.57;62.39;96806.78;10484965;28;20029;-34
2023/05/27 19:56:04;;;;;;;1.17;1.07;;;;;;;18.46;62.39;96814.38;10485740;28;20119;-34
2023/05/27 20:01:04;;;;;;;1.35;1.25;;;;;;;18.40;62.20;96813.53;10492446;28;20355;-34
2023/05/27 20:06:06;;;;;;;1.40;1.30;;;;;;;18.38;61.86;96815.19;10492535;28;20036;-34
2023/05/27 20:11:07;;;;;;;1.20;1.10;;;;;;;18.35;61.73;96821.09;10482944;28;20192;-33
2023/05/27 20:16:07;;;;;;;1.27;1.17;;;;;;;18.34;61.55;96813.50;10475991;28;20061;-33
2023/05/27 20:21:08;;;;;;;1.13;1.00;;;;;;;18.33;61.46;96810.09;10467045;28;20041;-34
2023/05/27 20:26:08;;;;;;;1.23;1.00;;;;;;;18.32;61.43;96812.66;10478331;28;20040;-33
2023/05/27 20:31:09;;;;;;;1.40;1.30;;;;;;;18.30;61.29;96810.13;10483227;28;20025;-34
2023/05/27 20:36:09;;;;;;;1.20;1.10;;;;;;;18.30;61.45;96809.25;10473336;28;20523;-33
2023/05/27 20:41:10;;;;;;;1.20;1.10;;;;;;;18.51;62.79;96811.84;10468486;28;20043;-34
2023/05/27 20:46:10;;;;;;;1.50;1.40;;;;;;;18.65;63.06;96811.00;10481658;28;20089;-33
2023/05/27 20:51:10;;;;;;;1.03;0.97;;;;;;;18.61;61.95;96808.47;10481347;28;20033;-33
2023/05/27 20:56:11;;;;;;;1.17;1.08;;;;;;;18.48;62.45;96807.59;10480169;28;20045;-33
2023/05/27 21:01:11;;;;;;;0.97;0.97;;;;;;;18.41;62.44;96810.97;10483611;28;20028;-33
2023/05/27 21:06:12;;;;;;;1.20;1.10;;;;;;;18.39;62.01;96811.81;10482733;28;20036;-33
2023/05/27 21:11:12;;;;;;;1.13;1.05;;;;;;;18.36;61.78;96810.13;10476027;28;20086;-33
2023/05/27 21:16:13;;;;;;;1.10;1.00;;;;;;;18.32;61.58;96810.13;10473730;28;20045;-34
2023/05/27 21:21:13;;;;;;;1.00;0.90;;;;;;;18.34;61.98;96811.78;10490631;28;20032;-33
2023/05/27 21:26:13;;;;;;;1.30;1.20;;;;;;;18.29;61.45;96800.81;10475857;28;20294;-33
2023/05/27 21:31:14;;;;;;;1.33;1.23;;;;;;;18.33;61.51;96811.81;10481446;28;20032;-34
2023/05/27 21:36:14;;;;;;;1.10;1.00;;;;;;;18.31;61.30;96800.81;10487074;28;20037;-33
2023/05/27 21:41:15;;;;;;;1.40;1.30;;;;;;;18.43;62.76;96798.31;10479716;28;20695;-33
2023/05/27 21:46:17;;;;;;;1.20;1.10;;;;;;;18.60;62.54;96796.63;10474477;28;20024;-34
2023/05/27 21:51:18;;;;;;;1.15;1.02;;;;;;;18.65;61.21;96794.94;10470576;28;20291;-35
2023/05/27 21:56:19;;;;;;;0.98;0.90;;;;;;;18.53;62.16;96789.88;10487084;28;20028;-35
2023/05/27 22:01:19;;;;;;;1.10;1.00;;;;;;;18.43;62.34;96791.53;10488753;28;20033;-33
2023/05/27 22:06:21;;;;;;;0.93;0.90;;;;;;;18.38;61.91;96792.38;10473986;28;20412;-34
2023/05/27 22:11:21;;;;;;;1.60;1.50;;;;;;;18.36;61.45;96786.47;10477596;28;20024;-33
2023/05/27 22:16:22;;;;;;;1.17;1.07;;;;;;;18.34;61.59;96783.09;10483135;28;20044;-34
2023/05/27 22:21:22;;;;;;;1.27;1.17;;;;;;;18.32;61.30;96775.47;10461378;28;20048;-33
2023/05/27 22:26:23;;;;;;;1.83;1.40;;;;;;;18.33;61.35;96776.34;10479926;28;20036;-34
2023/05/27 22:31:24;;;;;;;1.13;1.02;;;;;;;18.33;61.13;96781.41;10473811;28;20028;-33
2023/05/27 22:36:24;;;;;;;1.30;1.20;;;;;;;18.30;61.15;96771.22;10487067;28;20854;-34
2023/05/27 22:41:26;;;;;;;1.67;1.20;;;;;;;18.36;63.18;96773.78;10496012;28;20041;-34
2023/05/27 22:46:27;;;;;;;1.27;1.17;;;;;;;18.56;62.38;96769.56;10486635;28;20790;-33
2023/05/27 22:51:27;;;;;;;1.33;1.23;;;;;;;18.63;61.35;96774.66;10486381;28;20029;-33
2023/05/27 22:56:30;;;;;;;0.93;0.90;;;;;;;18.52;62.15;96765.34;10492271;28;20060;-32
2023/05/27 23:01:30;;;;;;;1.15;1.00;;;;;;;18.43;61.77;96763.66;10489778;28;20024;-34
2023/05/27 23:06:31;;;;;;;1.13;1.03;;;;;;;18.39;61.89;96763.63;10484611;28;20024;-33
2023/05/27 23:11:31;;;;;;;1.00;1.00;;;;;;;18.36;61.82;96761.13;10481719;28;20033;-33
2023/05/27 23:16:31;;;;;;;1.30;1.20;;;;;;;18.34;61.66;96760.28;10491083;28;20493;-35
2023/05/27 23:21:32;;;;;;;1.00;1.00;;;;;;;18.34;61.48;96765.34;10493873;28;20023;-33